Naval Air Station/JRB, Texas
Current Conditions -  °F | °C
As of 2:52 AM on Thursday 23 Oct 2014 (Local Time) from KNFW Reporting Station
Overcast Overcast  
Wind Chill: 74°   Ceiling: 8000
Heat Index: 74°   Visibility: 10mi
Dew Point: 52°   Wind: 7mph
Humidity: 46%   Direction: 130°SE
Pressure: 30.15"   Gusts: NA
Location:  32.7796°N, 97.4234°W
Report Text: KNFW 230752Z AUTO 13006KT 10SM OVC080 23/11 A3015 RMK AO2 SLP191 T02330111 CHINO N VISNO N $
Loading
Personal Weather Stations






























Interactive Weather Map
Tropical Storm Tracking
New forecast layout! Learn more

10-Day Weather Forecast

Advertisements
Track Severe Weather on mobile